Time,TemperatureF,DewpointF,PressureIn,WindDirection,WindDirectionDegrees,WindSpeedMPH,WindSpeedGustMPH,Humidity,HourlyPrecipIn,Conditions,Clouds,dailyrainin,SoftwareType,DateUTC
2013-03-05 00:02:00,22.0,19.0,-100.00,SW,231,0.0,0.0,85,0.00,,,-99.99,,2013-03-05 05:02:00,
2013-03-05 00:12:00,22.0,19.0,-100.00,SSW,208,0.0,0.0,85,0.00,,,-99.99,,2013-03-05 05:12:00,
2013-03-05 00:22:00,21.0,19.0,-100.00,WSW,256,0.0,0.0,86,0.00,,,-99.99,,2013-03-05 05:22:00,
2013-03-05 00:32:00,21.0,18.0,-100.00,WSW,256,0.0,0.0,85,0.00,,,-99.99,,2013-03-05 05:32:00,
2013-03-05 00:42:00,21.0,18.0,-100.00,WNW,303,0.0,0.0,85,0.00,,,-99.99,,2013-03-05 05:42:00,
2013-03-05 00:52:00,21.0,19.0,-100.00,WSW,255,0.0,0.0,86,0.00,,,-99.99,,2013-03-05 05:52:00,
2013-03-05 01:01:00,20.0,18.0,-100.00,West,269,0.0,0.0,86,0.00,,,-99.99,,2013-03-05 06:01:00,
2013-03-05 01:11:00,21.0,19.0,-100.00,WSW,247,1.0,1.0,86,0.00,,,-99.99,,2013-03-05 06:11:00,
2013-03-05 01:22:00,19.0,16.0,-100.00,WSW,249,0.0,1.0,85,0.00,,,-99.99,,2013-03-05 06:22:00,
2013-03-05 01:32:00,23.0,21.0,-100.00,West,269,0.0,1.0,88,0.00,,,-99.99,,2013-03-05 06:32:00,
2013-03-05 01:42:00,23.0,21.0,-100.00,WSW,256,0.0,1.0,88,0.00,,,-99.99,,2013-03-05 06:42:00,
2013-03-05 01:52:00,21.0,18.0,-100.00,West,265,1.0,1.0,85,0.00,,,-99.99,,2013-03-05 06:52:00,
2013-03-05 02:01:00,23.0,21.0,-100.00,WNW,286,1.0,1.0,86,0.00,,,-99.99,,2013-03-05 07:01:00,
2013-03-05 02:11:00,23.0,21.0,-100.00,SSW,194,0.0,1.0,86,0.00,,,-99.99,,2013-03-05 07:11:00,
2013-03-05 02:22:00,20.0,18.0,-100.00,SSW,206,0.0,1.0,85,0.00,,,-99.99,,2013-03-05 07:22:00,
2013-03-05 02:32:00,22.0,19.0,-100.00,NNE,26,0.0,1.0,89,0.00,,,-99.99,,2013-03-05 07:32:00,
2013-03-05 02:42:00,21.0,19.0,-100.00,SW,220,0.0,1.0,88,0.00,,,-99.99,,2013-03-05 07:42:00,
2013-03-05 02:51:00,21.0,19.0,-100.00,SSW,206,0.0,1.0,88,0.00,,,-99.99,,2013-03-05 07:51:00,
2013-03-05 03:02:00,19.0,16.0,-100.00,South,172,0.0,1.0,86,0.00,,,-99.99,,2013-03-05 08:02:00,
2013-03-05 03:11:00,19.0,16.0,-100.00,SSW,208,1.0,1.0,86,0.00,,,-99.99,,2013-03-05 08:11:00,
2013-03-05 03:21:00,19.0,16.0,-100.00,WSW,240,0.0,1.0,86,0.00,,,-99.99,,2013-03-05 08:21:00,
2013-03-05 03:31:00,19.0,18.0,-100.00,WNW,289,0.0,1.0,88,0.00,,,-99.99,,2013-03-05 08:31:00,
2013-03-05 03:42:00,21.0,19.0,-100.00,WSW,238,0.0,1.0,89,0.00,,,-99.99,,2013-03-05 08:42:00,
2013-03-05 03:52:00,19.0,16.0,-100.00,SW,216,0.0,1.0,88,0.00,,,-99.99,,2013-03-05 08:52:00,
2013-03-05 04:01:00,20.0,19.0,-100.00,West,271,0.0,1.0,89,0.00,,,-99.99,,2013-03-05 09:01:00,
2013-03-05 04:11:00,21.0,19.0,-100.00,WSW,245,0.0,1.0,89,0.00,,,-99.99,,2013-03-05 09:11:00,
2013-03-05 04:21:00,18.0,16.0,-100.00,SW,223,0.0,1.0,89,0.00,,,-99.99,,2013-03-05 09:21:00,
2013-03-05 04:32:00,19.0,18.0,-100.00,SSW,194,0.0,1.0,89,0.00,,,-99.99,,2013-03-05 09:32:00,
2013-03-05 04:43:00,19.0,18.0,-100.00,SSW,210,0.0,1.0,89,0.00,,,-99.99,,2013-03-05 09:43:00,
2013-03-05 04:52:00,20.0,19.0,-100.00,SW,223,0.0,1.0,91,0.00,,,-99.99,,2013-03-05 09:52:00,
2013-03-05 05:01:00,20.0,18.0,-100.00,SSW,213,0.0,1.0,89,0.00,,,-99.99,,2013-03-05 10:01:00,
2013-03-05 05:11:00,18.0,16.0,-100.00,SW,223,0.0,1.0,88,0.00,,,-99.99,,2013-03-05 10:11:00,
2013-03-05 05:21:00,20.0,19.0,-100.00,East,90,1.0,1.0,90,0.00,,,-99.99,,2013-03-05 10:21:00,
2013-03-05 05:32:00,20.0,18.0,-100.00,East,98,0.0,1.0,89,0.00,,,-99.99,,2013-03-05 10:32:00,
2013-03-05 05:42:00,18.0,16.0,-100.00,SW,234,0.0,1.0,88,0.00,,,-99.99,,2013-03-05 10:42:00,
2013-03-05 05:52:00,17.0,16.0,-100.00,WSW,240,0.0,1.0,89,0.00,,,-99.99,,2013-03-05 10:52:00,
2013-03-05 06:02:00,17.0,16.0,-100.00,South,170,1.0,1.0,88,0.00,,,-99.99,,2013-03-05 11:02:00,
2013-03-05 06:11:00,19.0,18.0,-100.00,WSW,245,0.0,1.0,90,0.00,,,-99.99,,2013-03-05 11:11:00,
2013-03-05 06:22:00,16.0,14.0,-100.00,SSW,196,0.0,1.0,88,0.00,,,-99.99,,2013-03-05 11:22:00,
2013-03-05 06:32:00,18.0,16.0,-100.00,SSW,201,0.0,1.0,89,0.00,,,-99.99,,2013-03-05 11:32:00,
2013-03-05 06:42:00,20.0,19.0,-100.00,South,172,0.0,1.0,90,0.00,,,-99.99,,2013-03-05 11:42:00,
2013-03-05 06:52:00,20.0,18.0,-100.00,SE,134,0.0,1.0,88,0.00,,,-99.99,,2013-03-05 11:52:00,
2013-03-05 07:02:00,20.0,18.0,-100.00,SE,144,0.0,1.0,90,0.00,,,-99.99,,2013-03-05 12:02:00,
2013-03-05 07:12:00,21.0,19.0,-100.00,East,86,0.0,1.0,89,0.00,,,-99.99,,2013-03-05 12:12:00,
2013-03-05 07:22:00,22.0,19.0,-100.00,ESE,105,1.0,1.0,89,0.00,,,-99.99,,2013-03-05 12:22:00,
2013-03-05 07:32:00,24.0,23.0,-100.00,SE,128,0.0,1.0,91,0.00,,,-99.99,,2013-03-05 12:32:00,
2013-03-05 07:42:00,22.0,19.0,-100.00,South,175,0.0,1.0,89,0.00,,,-99.99,,2013-03-05 12:42:00,
2013-03-05 07:52:00,22.0,19.0,-100.00,SW,232,0.0,1.0,89,0.00,,,-99.99,,2013-03-05 12:52:00,
2013-03-05 08:02:00,23.0,21.0,-100.00,SSE,153,0.0,1.0,88,0.00,,,-99.99,,2013-03-05 13:02:00,
2013-03-05 08:12:00,23.0,21.0,-100.00,WSW,242,0.0,1.0,88,0.00,,,-99.99,,2013-03-05 13:12:00,
2013-03-05 08:22:00,23.0,21.0,-100.00,East,90,0.0,1.0,88,0.00,,,-99.99,,2013-03-05 13:22:00,
2013-03-05 08:32:00,23.0,21.0,-100.00,ESE,111,2.0,2.0,88,0.00,,,-99.99,,2013-03-05 13:32:00,
2013-03-05 08:42:00,23.0,21.0,-100.00,East,86,2.0,2.0,86,0.00,,,-99.99,,2013-03-05 13:42:00,
2013-03-05 08:52:00,23.0,21.0,-100.00,ENE,66,2.0,2.0,86,0.00,,,-99.99,,2013-03-05 13:52:00,
2013-03-05 09:02:00,24.0,21.0,-100.00,East,88,2.0,2.0,86,0.00,,,-99.99,,2013-03-05 14:02:00,
2013-03-05 09:11:00,24.0,21.0,-100.00,ENE,73,2.0,2.0,85,0.00,,,-99.99,,2013-03-05 14:11:00,
2013-03-05 09:22:00,26.0,23.0,-100.00,East,101,3.0,4.0,88,0.00,,,-99.99,,2013-03-05 14:22:00,
2013-03-05 09:32:00,24.0,21.0,-100.00,ESE,120,4.0,4.0,85,0.00,,,-99.99,,2013-03-05 14:32:00,
2013-03-05 09:42:00,23.0,19.0,-100.00,East,93,4.0,6.0,85,0.00,,,-99.99,,2013-03-05 14:42:00,
2013-03-05 09:52:00,24.0,21.0,-100.00,South,186,4.0,6.0,85,0.00,,,-99.99,,2013-03-05 14:52:00,
2013-03-05 10:02:00,26.0,23.0,-100.00,East,96,3.0,6.0,86,0.00,,,-99.99,,2013-03-05 15:02:00,
2013-03-05 10:11:00,23.0,21.0,-100.00,East,80,3.0,6.0,85,0.00,,,-99.99,,2013-03-05 15:11:00,
2013-03-05 10:22:00,24.0,21.0,-100.00,SSE,153,2.0,6.0,84,0.00,,,-99.99,,2013-03-05 15:22:00,
2013-03-05 10:32:00,24.0,21.0,-100.00,East,93,3.0,6.0,84,0.00,,,-99.99,,2013-03-05 15:32:00,
2013-03-05 10:42:00,25.0,21.0,-100.00,NE,56,2.0,6.0,84,0.00,,,-99.99,,2013-03-05 15:42:00,
2013-03-05 10:52:00,25.0,21.0,-100.00,East,100,2.0,6.0,84,0.00,,,-99.99,,2013-03-05 15:52:00,
2013-03-05 11:02:00,25.0,21.0,-100.00,NE,45,3.0,6.0,82,0.00,,,-99.99,,2013-03-05 16:02:00,
2013-03-05 11:11:00,26.0,23.0,-100.00,SE,131,2.0,6.0,84,0.00,,,-99.99,,2013-03-05 16:11:00,
2013-03-05 11:22:00,26.0,23.0,-100.00,ENE,73,3.0,6.0,82,0.00,,,-99.99,,2013-03-05 16:22:00,
2013-03-05 11:32:00,27.0,23.0,-100.00,ENE,69,3.0,6.0,81,0.00,,,-99.99,,2013-03-05 16:32:00,
2013-03-05 11:42:00,27.0,23.0,-100.00,ESE,110,2.0,6.0,81,0.00,,,-99.99,,2013-03-05 16:42:00,
2013-03-05 11:52:00,28.0,23.0,-100.00,SE,127,2.0,6.0,80,0.00,,,-99.99,,2013-03-05 16:52:00,
2013-03-05 12:01:00,28.0,23.0,-100.00,East,87,2.0,6.0,78,0.00,,,-99.99,,2013-03-05 17:01:00,
2013-03-05 12:11:00,28.0,23.0,-100.00,SSE,156,2.0,6.0,77,0.00,,,-99.99,,2013-03-05 17:11:00,
2013-03-05 12:22:00,28.0,23.0,-100.00,ENE,67,4.0,6.0,77,0.00,,,-99.99,,2013-03-05 17:22:00,
2013-03-05 12:32:00,28.0,23.0,-100.00,East,84,5.0,6.0,76,0.00,,,-99.99,,2013-03-05 17:32:00,
2013-03-05 12:42:00,30.0,23.0,-100.00,ENE,64,3.0,6.0,73,0.00,,,-99.99,,2013-03-05 17:42:00,
2013-03-05 12:52:00,30.0,25.0,-100.00,ESE,105,3.0,6.0,75,0.00,,,-99.99,,2013-03-05 17:52:00,
2013-03-05 13:02:00,31.0,25.0,-100.00,East,86,2.0,6.0,73,0.00,,,-99.99,,2013-03-05 18:02:00,
2013-03-05 13:11:00,30.0,23.0,-100.00,ESE,110,4.0,6.0,73,0.00,,,-99.99,,2013-03-05 18:11:00,
2013-03-05 13:22:00,32.0,25.0,-100.00,East,81,4.0,6.0,71,0.00,,,-99.99,,2013-03-05 18:22:00,
2013-03-05 13:32:00,31.0,23.0,-100.00,ESE,115,4.0,6.0,72,0.00,,,-99.99,,2013-03-05 18:32:00,
2013-03-05 13:42:00,34.0,27.0,-100.00,NE,52,4.0,6.0,71,0.00,,,-99.99,,2013-03-05 18:42:00,
2013-03-05 13:52:00,33.0,25.0,-100.00,East,88,2.0,6.0,69,0.00,,,-99.99,,2013-03-05 18:52:00,
2013-03-05 14:01:00,33.0,27.0,-100.00,ENE,70,2.0,6.0,71,0.00,,,-99.99,,2013-03-05 19:01:00,
2013-03-05 14:11:00,33.0,25.0,-100.00,East,83,5.0,6.0,67,0.00,,,-99.99,,2013-03-05 19:11:00,
2013-03-05 14:22:00,33.0,25.0,-100.00,East,79,4.0,6.0,68,0.00,,,-99.99,,2013-03-05 19:22:00,
2013-03-05 14:32:00,34.0,25.0,-100.00,ENE,74,4.0,6.0,64,0.00,,,-99.99,,2013-03-05 19:32:00,
2013-03-05 14:42:00,35.0,25.0,-100.00,East,87,4.0,6.0,63,0.00,,,-99.99,,2013-03-05 19:42:00,
2013-03-05 14:52:00,38.0,27.0,-100.00,SE,139,3.0,6.0,63,0.00,,,-99.99,,2013-03-05 19:52:00,
2013-03-05 15:01:00,36.0,25.0,-100.00,ESE,104,4.0,6.0,63,0.00,,,-99.99,,2013-03-05 20:01:00,
2013-03-05 15:11:00,36.0,25.0,-100.00,East,80,5.0,6.0,62,0.00,,,-99.99,,2013-03-05 20:11:00,
2013-03-05 15:22:00,36.0,25.0,-100.00,SE,125,5.0,6.0,63,0.00,,,-99.99,,2013-03-05 20:22:00,
2013-03-05 15:32:00,40.0,28.0,-100.00,NE,53,5.0,6.0,60,0.00,,,-99.99,,2013-03-05 20:32:00,
2013-03-05 15:42:00,39.0,30.0,-100.00,ENE,69,5.0,8.0,66,0.00,,,-99.99,,2013-03-05 20:42:00,
2013-03-05 15:52:00,36.0,27.0,-100.00,NE,36,5.0,8.0,67,0.00,,,-99.99,,2013-03-05 20:52:00,
2013-03-05 16:02:00,36.0,27.0,-100.00,NE,35,4.0,8.0,67,0.00,,,-99.99,,2013-03-05 21:02:00,
2013-03-05 16:11:00,36.0,27.0,-100.00,North,8,4.0,8.0,66,0.00,,,-99.99,,2013-03-05 21:11:00,
2013-03-05 16:22:00,36.0,27.0,-100.00,NE,35,4.0,8.0,67,0.00,,,-99.99,,2013-03-05 21:22:00,
2013-03-05 16:32:00,35.0,27.0,-100.00,ENE,69,4.0,8.0,68,0.00,,,-99.99,,2013-03-05 21:32:00,
2013-03-05 16:42:00,35.0,27.0,-100.00,NNE,19,4.0,8.0,69,0.00,,,-99.99,,2013-03-05 21:42:00,
2013-03-05 16:52:00,35.0,27.0,-100.00,North,11,5.0,8.0,68,0.00,,,-99.99,,2013-03-05 21:52:00,
2013-03-05 17:01:00,35.0,27.0,-100.00,NNE,31,4.0,8.0,69,0.00,,,-99.99,,2013-03-05 22:01:00,
2013-03-05 17:11:00,34.0,27.0,-100.00,ENE,57,4.0,8.0,71,0.00,,,-99.99,,2013-03-05 22:11:00,
2013-03-05 17:22:00,33.0,25.0,-100.00,ENE,69,4.0,8.0,72,0.00,,,-99.99,,2013-03-05 22:22:00,
2013-03-05 17:32:00,33.0,25.0,-100.00,ENE,62,4.0,8.0,72,0.00,,,-99.99,,2013-03-05 22:32:00,
2013-03-05 17:42:00,33.0,27.0,-100.00,NE,56,4.0,8.0,75,0.00,,,-99.99,,2013-03-05 22:42:00,
2013-03-05 17:52:00,32.0,27.0,-100.00,NE,45,4.0,8.0,75,0.00,,,-99.99,,2013-03-05 22:52:00,
2013-03-05 18:01:00,33.0,27.0,-100.00,ENE,60,2.0,8.0,75,0.00,,,-99.99,,2013-03-05 23:01:00,
2013-03-05 18:11:00,32.0,27.0,-100.00,NE,50,2.0,8.0,75,0.00,,,-99.99,,2013-03-05 23:11:00,
2013-03-05 18:21:00,31.0,25.0,-100.00,ENE,69,2.0,8.0,75,0.00,,,-99.99,,2013-03-05 23:21:00,
2013-03-05 18:32:00,33.0,27.0,-100.00,NE,53,2.0,8.0,76,0.00,,,-99.99,,2013-03-05 23:32:00,
2013-03-05 18:42:00,32.0,27.0,-100.00,NE,50,2.0,8.0,77,0.00,,,-99.99,,2013-03-05 23:42:00,
2013-03-05 18:52:00,32.0,27.0,-100.00,NE,46,4.0,8.0,77,0.00,,,-99.99,,2013-03-05 23:52:00,
2013-03-05 19:01:00,32.0,27.0,-100.00,ENE,70,4.0,8.0,78,0.00,,,-99.99,,2013-03-06 00:01:00,
2013-03-05 19:11:00,32.0,27.0,-100.00,NNE,28,2.0,8.0,78,0.00,,,-99.99,,2013-03-06 00:11:00,
2013-03-05 19:21:00,31.0,27.0,-100.00,NE,46,2.0,8.0,80,0.00,,,-99.99,,2013-03-06 00:21:00,
2013-03-05 19:32:00,31.0,27.0,-100.00,East,84,3.0,8.0,80,0.00,,,-99.99,,2013-03-06 00:32:00,
2013-03-05 19:42:00,32.0,27.0,-100.00,ENE,66,4.0,8.0,80,0.00,,,-99.99,,2013-03-06 00:42:00,
2013-03-05 19:52:00,31.0,27.0,-100.00,East,90,4.0,8.0,80,0.00,,,-99.99,,2013-03-06 00:52:00,
2013-03-05 20:02:00,32.0,27.0,-100.00,ENE,74,4.0,8.0,80,0.00,,,-99.99,,2013-03-06 01:02:00,
2013-03-05 20:11:00,32.0,27.0,-100.00,ENE,72,3.0,8.0,80,0.00,,,-99.99,,2013-03-06 01:11:00,
2013-03-05 20:21:00,32.0,27.0,-100.00,NE,55,4.0,8.0,80,0.00,,,-99.99,,2013-03-06 01:21:00,
2013-03-05 20:32:00,33.0,28.0,-100.00,NE,53,4.0,8.0,80,0.00,,,-99.99,,2013-03-06 01:32:00,
2013-03-05 20:42:00,33.0,28.0,-100.00,ENE,59,4.0,8.0,80,0.00,,,-99.99,,2013-03-06 01:42:00,
2013-03-05 20:51:00,32.0,27.0,-100.00,NE,50,4.0,8.0,80,0.00,,,-99.99,,2013-03-06 01:51:00,
2013-03-05 21:01:00,32.0,28.0,-100.00,ENE,64,5.0,8.0,81,0.00,,,-99.99,,2013-03-06 02:01:00,
2013-03-05 21:11:00,32.0,28.0,-100.00,NE,48,5.0,8.0,80,0.00,,,-99.99,,2013-03-06 02:11:00,
2013-03-05 21:22:00,33.0,28.0,-100.00,NE,55,5.0,8.0,81,0.00,,,-99.99,,2013-03-06 02:22:00,
2013-03-05 21:32:00,32.0,28.0,-100.00,ENE,72,6.0,8.0,81,0.00,,,-99.99,,2013-03-06 02:32:00,
2013-03-05 21:42:00,33.0,28.0,-100.00,East,96,6.0,8.0,80,0.00,,,-99.99,,2013-03-06 02:42:00,
2013-03-05 21:52:00,33.0,28.0,-100.00,NE,48,5.0,8.0,82,0.00,,,-99.99,,2013-03-06 02:52:00,
2013-03-05 22:02:00,33.0,28.0,-100.00,ENE,62,5.0,8.0,81,0.00,,,-99.99,,2013-03-06 03:02:00,
2013-03-05 22:11:00,33.0,28.0,-100.00,East,79,4.0,8.0,80,0.00,,,-99.99,,2013-03-06 03:11:00,
2013-03-05 22:22:00,31.0,27.0,-100.00,ENE,70,4.0,8.0,80,0.00,,,-99.99,,2013-03-06 03:22:00,
2013-03-05 22:32:00,31.0,27.0,-100.00,NE,55,6.0,8.0,81,0.00,,,-99.99,,2013-03-06 03:32:00,
2013-03-05 22:42:00,32.0,28.0,-100.00,ENE,70,5.0,8.0,81,0.00,,,-99.99,,2013-03-06 03:42:00,
2013-03-05 22:52:00,33.0,28.0,-100.00,ENE,60,4.0,8.0,82,0.00,,,-99.99,,2013-03-06 03:52:00,
2013-03-05 23:02:00,31.0,27.0,-100.00,ENE,60,4.0,8.0,81,0.00,,,-99.99,,2013-03-06 04:02:00,
2013-03-05 23:11:00,31.0,27.0,-100.00,NE,43,2.0,8.0,80,0.00,,,-99.99,,2013-03-06 04:11:00,
2013-03-05 23:22:00,31.0,27.0,-100.00,NE,43,2.0,8.0,81,0.00,,,-99.99,,2013-03-06 04:22:00,
2013-03-05 23:32:00,31.0,27.0,-100.00,ENE,59,2.0,2.0,80,0.00,,,-99.99,,2013-03-06 04:32:00,
2013-03-05 23:42:00,31.0,27.0,-100.00,East,87,2.0,2.0,80,0.00,,,-99.99,,2013-03-06 04:42:00,
2013-03-05 23:52:00,31.0,27.0,-100.00,NE,46,2.0,2.0,80,0.00,,,-99.99,,2013-03-06 04:52:00,